Emmanuel Tomasos — C6SS7 — position and weather

sailwx.info

Track history (hours):
 
Tides and Currents Weather Stations Pressure Air Temp Water Temp Dewpoint Dewpoint Depression Visibility Wind Speed Wind Dir Waves Ship Positions

Emmanuel Tomasos

Last reported at 2017-Sep-20 16:40 UTC. Time now 2017-Sep-24 07:10 UTC.
Position S 23°56' W 046°19'.

Length 182 m; draft 7.5 m.

Type: Tanker. MMSI: 311459000.

Date/timePositionNaut miles runAvg speedWind from/ knotsBaromVisibWave heightAir tempDewpointWater temp
2017-Sep-20 16:40S 23°56' W 046°19'2 8.9
2017-Sep-20 16:28S 23°58' W 046°18'3 7.3
2017-Sep-20 16:00S 24°00' W 046°20'4 7.5
2017-Sep-20 15:30S 24°04' W 046°22'3 5.6
2017-Sep-20 15:00S 24°07' W 046°22'6 6.0
2017-Sep-20 14:00S 24°09' W 046°16'0 0.0
2017-Sep-20 13:30S 24°09' W 046°16'0 0.0
2017-Sep-20 13:00S 24°09' W 046°16'0 0.0
2017-Sep-20 12:30S 24°09' W 046°16'0 0.0
2017-Sep-20 11:54S 24°09' W 046°16'0 0.1
2017-Sep-20 11:30S 24°09' W 046°16'0 0.0
2017-Sep-20 10:54S 24°09' W 046°16'0 0.2
2017-Sep-20 10:30S 24°09' W 046°16'0 0.1
2017-Sep-20 09:42S 24°09' W 046°16'0 0.2
2017-Sep-20 09:30S 24°09' W 046°16'0 0.0
2017-Sep-20 09:00S 24°09' W 046°16'0 0.1
2017-Sep-20 08:30S 24°09' W 046°16'0 0.2
2017-Sep-20 07:54S 24°09' W 046°16'0 0.0
2017-Sep-20 07:30S 24°09' W 046°16'0 0.0
2017-Sep-20 07:00S 24°09' W 046°16'0 0.0
2017-Sep-20 06:24S 24°09' W 046°16'0 0.0
2017-Sep-20 06:00S 24°09' W 046°16'0 0.0
2017-Sep-20 05:24S 24°09' W 046°16'0 0.0
2017-Sep-20 05:00S 24°09' W 046°16'0 0.0
2017-Sep-20 04:30S 24°09' W 046°16'0 0.0
2017-Sep-20 03:54S 24°09' W 046°16'0 0.0
2017-Sep-20 03:30S 24°09' W 046°16'0 0.0
2017-Sep-20 03:00S 24°09' W 046°16'0 0.0
2017-Sep-20 02:27S 24°09' W 046°16'0 0.0
2017-Sep-20 01:54S 24°09' W 046°16'0 0.0
2017-Sep-20 01:30S 24°09' W 046°16'0 0.0
2017-Sep-20 01:00S 24°09' W 046°16'0 0.0
2017-Sep-20 00:24S 24°09' W 046°16'0 0.0
2017-Sep-20 00:00S 24°09' W 046°16'0 0.0
2017-Sep-19 23:27S 24°09' W 046°16'0 0.0
2017-Sep-19 23:00S 24°09' W 046°16'0 0.0
2017-Sep-19 22:30S 24°09' W 046°16'0 0.0
2017-Sep-19 22:00S 24°09' W 046°16'0 0.0
2017-Sep-19 21:24S 24°09' W 046°16'0 0.0
2017-Sep-19 20:42S 24°09' W 046°16'0 0.0
2017-Sep-19 20:30S 24°09' W 046°16'0 0.0
2017-Sep-19 20:00S 24°09' W 046°16'0 0.0
2017-Sep-19 19:30S 24°09' W 046°16'0 0.0
2017-Sep-19 18:54S 24°09' W 046°16'0 0.0
2017-Sep-19 18:24S 24°09' W 046°16'0 0.0
2017-Sep-19 18:00S 24°09' W 046°16'0 0.0
2017-Sep-19 17:30S 24°09' W 046°16'0 0.1
2017-Sep-19 17:00S 24°09' W 046°16'0 0.8
2017-Sep-19 16:31S 24°09' W 046°16'510.4
2017-Sep-19 16:00S 24°12' W 046°20'612.7
2017-Sep-19 15:30S 24°17' W 046°25'815.0
2017-Sep-19 15:00S 24°24' W 046°28'715.0
2017-Sep-19 14:30S 24°31' W 046°31'815.0
2017-Sep-19 13:58S 24°38' W 046°35'715.0
2017-Sep-19 13:29S 24°45' W 046°38'4814.9
2017-Sep-19 10:15S 25°30' W 046°59'415.1
2017-Sep-19 09:58S 25°33' W 047°00'715.1
2017-Sep-19 09:30S 25°40' W 047°04'  
Track history (hours):
 
Tides and Currents Weather Stations Pressure Air Temp Water Temp Dewpoint Dewpoint Depression Visibility Wind Speed Wind Dir Waves Ship Positions

Emmanuel Tomasos

Last reported at 2017-Sep-20 16:40 UTC. Time now 2017-Sep-24 07:10 UTC.
Position S 23°56' W 046°19'.

Length 182 m; draft 7.5 m.

Type: Tanker. MMSI: 311459000.

Date/timePositionNaut miles runAvg speedWind from/ knotsBaromVisibWave heightAir tempDewpointWater temp
2017-Sep-20 16:40S 23°56' W 046°19'2 8.9
2017-Sep-20 16:28S 23°58' W 046°18'3 7.3
2017-Sep-20 16:00S 24°00' W 046°20'4 7.5
2017-Sep-20 15:30S 24°04' W 046°22'3 5.6
2017-Sep-20 15:00S 24°07' W 046°22'6 6.0
2017-Sep-20 14:00S 24°09' W 046°16'0 0.0
2017-Sep-20 13:30S 24°09' W 046°16'0 0.0
2017-Sep-20 13:00S 24°09' W 046°16'0 0.0
2017-Sep-20 12:30S 24°09' W 046°16'0 0.0
2017-Sep-20 11:54S 24°09' W 046°16'0 0.1
2017-Sep-20 11:30S 24°09' W 046°16'0 0.0
2017-Sep-20 10:54S 24°09' W 046°16'0 0.2
2017-Sep-20 10:30S 24°09' W 046°16'0 0.1
2017-Sep-20 09:42S 24°09' W 046°16'0 0.2
2017-Sep-20 09:30S 24°09' W 046°16'0 0.0
2017-Sep-20 09:00S 24°09' W 046°16'0 0.1
2017-Sep-20 08:30S 24°09' W 046°16'0 0.2
2017-Sep-20 07:54S 24°09' W 046°16'0 0.0
2017-Sep-20 07:30S 24°09' W 046°16'0 0.0
2017-Sep-20 07:00S 24°09' W 046°16'0 0.0
2017-Sep-20 06:24S 24°09' W 046°16'0 0.0
2017-Sep-20 06:00S 24°09' W 046°16'0 0.0
2017-Sep-20 05:24S 24°09' W 046°16'0 0.0
2017-Sep-20 05:00S 24°09' W 046°16'0 0.0
2017-Sep-20 04:30S 24°09' W 046°16'0 0.0
2017-Sep-20 03:54S 24°09' W 046°16'0 0.0
2017-Sep-20 03:30S 24°09' W 046°16'0 0.0
2017-Sep-20 03:00S 24°09' W 046°16'0 0.0
2017-Sep-20 02:27S 24°09' W 046°16'0 0.0
2017-Sep-20 01:54S 24°09' W 046°16'0 0.0
2017-Sep-20 01:30S 24°09' W 046°16'0 0.0
2017-Sep-20 01:00S 24°09' W 046°16'0 0.0
2017-Sep-20 00:24S 24°09' W 046°16'0 0.0
2017-Sep-20 00:00S 24°09' W 046°16'0 0.0
2017-Sep-19 23:27S 24°09' W 046°16'0 0.0
2017-Sep-19 23:00S 24°09' W 046°16'0 0.0
2017-Sep-19 22:30S 24°09' W 046°16'0 0.0
2017-Sep-19 22:00S 24°09' W 046°16'0 0.0
2017-Sep-19 21:24S 24°09' W 046°16'0 0.0
2017-Sep-19 20:42S 24°09' W 046°16'0 0.0
2017-Sep-19 20:30S 24°09' W 046°16'0 0.0
2017-Sep-19 20:00S 24°09' W 046°16'0 0.0
2017-Sep-19 19:30S 24°09' W 046°16'0 0.0
2017-Sep-19 18:54S 24°09' W 046°16'0 0.0
2017-Sep-19 18:24S 24°09' W 046°16'0 0.0
2017-Sep-19 18:00S 24°09' W 046°16'0 0.0
2017-Sep-19 17:30S 24°09' W 046°16'0 0.1
2017-Sep-19 17:00S 24°09' W 046°16'0 0.8
2017-Sep-19 16:31S 24°09' W 046°16'510.4
2017-Sep-19 16:00S 24°12' W 046°20'612.7
2017-Sep-19 15:30S 24°17' W 046°25'815.0
2017-Sep-19 15:00S 24°24' W 046°28'715.0
2017-Sep-19 14:30S 24°31' W 046°31'815.0
2017-Sep-19 13:58S 24°38' W 046°35'715.0
2017-Sep-19 13:29S 24°45' W 046°38'4814.9
2017-Sep-19 10:15S 25°30' W 046°59'415.1
2017-Sep-19 09:58S 25°33' W 047°00'715.1
2017-Sep-19 09:30S 25°40' W 047°04'  

Dump ship's entire track history